Time;durP1;ratioP1;P1;durP2;ratioP2;P2;SDS_P1;SDS_P2;PMS_P1;PMS_P2;Temp;Humidity;BMP_temperature;BMP_pressure;BME280_temperature;BME280_humidity;BME280_pressure;Samples;Min_cycle;Max_cycle;Signal;HPM_P1;HPM_P2
2021/12/27 00:03:00;;;;;;;8.13;4.68;;;19.70;44.10;;;;;;6218213;28;20116;-73
2021/12/27 00:06:01;;;;;;;8.27;4.53;;;19.70;44.10;;;;;;6195585;28;20041;-73
2021/12/27 00:09:02;;;;;;;8.38;4.68;;;19.70;44.10;;;;;;6201472;28;20034;-73
2021/12/27 00:12:03;;;;;;;8.88;5.05;;;19.70;44.10;;;;;;6219621;28;20030;-73
2021/12/27 00:15:04;;;;;;;9.32;5.32;;;19.70;44.10;;;;;;6219881;28;20014;-73
2021/12/27 00:18:05;;;;;;;7.35;4.57;;;19.70;44.10;;;;;;6219227;28;20056;-73
2021/12/27 00:21:06;;;;;;;10.40;5.15;;;19.70;44.10;;;;;;6218633;28;20431;-73
2021/12/27 00:24:07;;;;;;;10.07;4.82;;;19.70;44.10;;;;;;6219462;28;20026;-73
2021/12/27 00:27:07;;;;;;;9.52;5.10;;;19.70;44.10;;;;;;6219283;28;20026;-73
2021/12/27 00:30:12;;;;;;;8.98;4.50;;;19.70;44.00;;;;;;6219123;28;20033;-73
2021/12/27 00:33:12;;;;;;;8.00;4.80;;;19.70;44.10;;;;;;6191621;28;20034;-73
2021/12/27 00:36:13;;;;;;;9.55;5.18;;;19.70;44.10;;;;;;6200250;28;20072;-73
2021/12/27 00:39:13;;;;;;;7.95;4.53;;;19.70;44.10;;;;;;6198467;28;20397;-73
2021/12/27 00:42:15;;;;;;;7.95;4.70;;;19.70;44.20;;;;;;6214604;28;20026;-73
2021/12/27 00:45:15;;;;;;;9.38;4.85;;;19.70;44.10;;;;;;6206073;28;20025;-73
2021/12/27 00:48:17;;;;;;;9.80;5.15;;;19.70;44.10;;;;;;6210344;28;20045;-73
2021/12/27 00:51:17;;;;;;;6.50;4.00;;;19.70;44.10;;;;;;6213581;28;20030;-73
2021/12/27 00:54:18;;;;;;;9.30;5.07;;;19.70;44.20;;;;;;6205362;28;20026;-73
2021/12/27 00:57:19;;;;;;;9.45;4.72;;;19.70;44.20;;;;;;6218617;28;20037;-73
2021/12/27 01:00:23;;;;;;;8.80;5.00;;;19.70;44.10;;;;;;6218365;28;20149;-73
2021/12/27 01:03:24;;;;;;;8.83;4.87;;;19.70;44.10;;;;;;6218968;28;20026;-72
2021/12/27 01:06:25;;;;;;;8.27;5.13;;;19.70;44.20;;;;;;6218723;28;20108;-72
2021/12/27 01:09:46;;;;;;;8.43;4.80;;;19.60;44.00;;;;;;6218279;28;20041;-72
2021/12/27 01:13:18;;;;;;;11.63;5.85;;;19.60;44.10;;;;;;6218426;28;20033;-73
2021/12/27 01:16:18;;;;;;;8.20;5.18;;;19.60;44.00;;;;;;6194059;28;20388;-74
2021/12/27 01:19:19;;;;;;;9.57;4.70;;;19.60;44.10;;;;;;6204799;28;20014;-73
2021/12/27 01:22:19;;;;;;;8.85;4.43;;;19.70;44.00;;;;;;6218342;28;20357;-75
2021/12/27 01:25:21;;;;;;;8.68;4.97;;;19.60;44.00;;;;;;6218524;28;20025;-73
2021/12/27 01:28:21;;;;;;;9.77;5.22;;;19.60;44.00;;;;;;6217971;28;20144;-73
2021/12/27 01:31:23;;;;;;;9.48;4.90;;;19.70;44.10;;;;;;6209743;28;20030;-73
2021/12/27 01:34:25;;;;;;;7.55;4.53;;;19.60;44.00;;;;;;6207170;28;20366;-72
2021/12/27 01:37:26;;;;;;;9.02;5.05;;;19.60;44.00;;;;;;6220147;28;20121;-73
2021/12/27 01:40:27;;;;;;;9.65;5.30;;;19.60;44.10;;;;;;6201824;28;20485;-73
2021/12/27 01:43:32;;;;;;;9.98;5.15;;;19.60;44.10;;;;;;6191477;28;20026;-73
2021/12/27 01:46:32;;;;;;;9.02;5.43;;;19.60;44.00;;;;;;6222389;28;20018;-73
2021/12/27 01:49:33;;;;;;;8.20;5.03;;;19.60;44.00;;;;;;6223044;28;20029;-73
2021/12/27 01:52:33;;;;;;;10.00;5.22;;;19.60;44.00;;;;;;6222244;28;20026;-73
2021/12/27 01:55:35;;;;;;;9.73;5.18;;;19.60;44.00;;;;;;6222356;28;20041;-73
2021/12/27 01:58:37;;;;;;;11.02;6.03;;;19.60;44.10;;;;;;6221982;28;20074;-73
2021/12/27 02:01:37;;;;;;;8.85;5.70;;;19.60;44.10;;;;;;6205034;28;20081;-73
2021/12/27 02:04:38;;;;;;;9.65;5.57;;;19.60;44.00;;;;;;6212918;28;20034;-72
2021/12/27 02:07:39;;;;;;;9.13;5.05;;;19.60;44.00;;;;;;6221812;28;20120;-73
2021/12/27 02:10:40;;;;;;;8.77;4.93;;;19.60;44.10;;;;;;6221391;28;20488;-72
2021/12/27 02:13:44;;;;;;;9.57;5.43;;;19.60;44.10;;;;;;6221489;28;20419;-73
2021/12/27 02:16:44;;;;;;;10.52;5.32;;;19.60;44.10;;;;;;6218724;28;20480;-73
2021/12/27 02:19:50;;;;;;;10.25;5.93;;;19.60;44.10;;;;;;6221590;28;20075;-73
2021/12/27 02:22:55;;;;;;;8.95;5.10;;;19.60;44.10;;;;;;6221665;28;20026;-73
2021/12/27 02:25:55;;;;;;;9.98;5.50;;;19.60;44.10;;;;;;6221305;28;20026;-73
2021/12/27 02:28:56;;;;;;;10.27;5.47;;;19.60;44.80;;;;;;6221228;28;20361;-73
2021/12/27 02:31:57;;;;;;;10.90;6.10;;;19.60;44.10;;;;;;6203298;28;20453;-73
2021/12/27 02:34:57;;;;;;;9.90;5.38;;;19.60;44.10;;;;;;6205651;28;20056;-73
2021/12/27 02:38:00;;;;;;;11.20;6.00;;;19.60;44.10;;;;;;6218011;28;20058;-73
2021/12/27 02:41:01;;;;;;;9.63;4.75;;;19.60;44.10;;;;;;6220922;28;20022;-73
2021/12/27 02:44:02;;;;;;;10.98;5.95;;;19.60;44.10;;;;;;6202182;28;20027;-73
2021/12/27 02:47:03;;;;;;;11.48;5.65;;;19.60;44.00;;;;;;6221321;28;20038;-72
2021/12/27 02:50:04;;;;;;;11.55;6.15;;;19.60;44.10;;;;;;6220776;28;20286;-73
2021/12/27 02:53:06;;;;;;;11.20;5.78;;;19.50;44.00;;;;;;6220456;28;20358;-72
2021/12/27 02:56:06;;;;;;;11.30;5.88;;;19.60;44.10;;;;;;6220598;28;20060;-73
2021/12/27 02:59:07;;;;;;;12.02;5.97;;;19.60;44.10;;;;;;6220754;28;20036;-73
2021/12/27 03:02:07;;;;;;;9.65;5.93;;;19.50;44.00;;;;;;6220332;28;20056;-73
2021/12/27 03:05:10;;;;;;;10.13;5.63;;;19.50;44.80;;;;;;6220636;28;20502;-73
2021/12/27 03:08:15;;;;;;;9.90;5.43;;;19.60;44.20;;;;;;6220707;28;20030;-73
2021/12/27 03:11:15;;;;;;;10.40;6.05;;;19.50;44.10;;;;;;6220445;28;20057;-73
2021/12/27 03:14:16;;;;;;;11.30;6.20;;;19.60;44.20;;;;;;6220139;28;20069;-73
2021/12/27 03:17:16;;;;;;;10.57;6.47;;;19.50;44.10;;;;;;6220401;28;20025;-73
2021/12/27 03:20:20;;;;;;;10.32;5.68;;;19.50;44.10;;;;;;6220288;28;20080;-72
2021/12/27 03:23:21;;;;;;;11.15;6.18;;;19.50;44.10;;;;;;6219955;28;20022;-73
2021/12/27 03:26:22;;;;;;;11.18;5.65;;;19.60;44.10;;;;;;6220430;28;20022;-73
2021/12/27 03:29:23;;;;;;;11.57;6.07;;;19.50;44.10;;;;;;6219696;28;20421;-73
2021/12/27 03:32:24;;;;;;;12.20;6.43;;;19.50;44.10;;;;;;6201436;28;20048;-73
2021/12/27 03:35:27;;;;;;;11.98;6.35;;;19.50;44.20;;;;;;6209684;28;20029;-73
2021/12/27 03:38:34;;;;;;;11.35;6.07;;;19.50;44.10;;;;;;6219878;28;20416;-73
2021/12/27 03:41:36;;;;;;;11.52;5.85;;;19.50;44.10;;;;;;6219603;28;20026;-73
2021/12/27 03:44:36;;;;;;;11.38;6.00;;;19.50;44.10;;;;;;6205781;28;20037;-73
2021/12/27 03:47:37;;;;;;;11.32;6.22;;;19.50;44.10;;;;;;6214772;28;20088;-73
2021/12/27 03:50:38;;;;;;;11.23;6.68;;;19.50;44.10;;;;;;6216422;28;20038;-73
2021/12/27 03:53:39;;;;;;;12.15;6.85;;;19.50;44.00;;;;;;6218655;28;20025;-73
2021/12/27 03:56:39;;;;;;;14.43;6.75;;;19.50;44.10;;;;;;6214720;28;20026;-73
2021/12/27 04:03:54;;;;;;;10.05;5.88;;;19.50;44.10;;;;;;6171904;28;20127;-73
2021/12/27 04:06:55;;;;;;;10.98;6.30;;;19.50;44.00;;;;;;6170764;28;20032;-73
2021/12/27 04:09:55;;;;;;;12.10;6.53;;;19.50;44.10;;;;;;6170879;28;20154;-73
2021/12/27 04:12:56;;;;;;;11.05;6.60;;;19.50;44.00;;;;;;6171031;28;20477;-73
2021/12/27 04:15:57;;;;;;;11.00;6.45;;;19.50;44.00;;;;;;6170834;28;20034;-73
2021/12/27 04:18:58;;;;;;;10.63;5.97;;;19.50;44.10;;;;;;6170475;28;20034;-73
2021/12/27 04:21:58;;;;;;;12.02;6.13;;;19.50;44.10;;;;;;6168873;28;20035;-73
2021/12/27 04:25:03;;;;;;;10.65;5.78;;;19.50;44.20;;;;;;6170375;28;20037;-73
2021/12/27 04:28:04;;;;;;;10.00;5.85;;;19.50;44.10;;;;;;6170088;28;20166;-73
2021/12/27 04:31:04;;;;;;;15.40;6.20;;;19.50;44.10;;;;;;6149827;28;20044;-73
2021/12/27 04:34:05;;;;;;;9.13;5.78;;;19.50;44.10;;;;;;6144471;28;20038;-73
2021/12/27 04:37:06;;;;;;;11.20;6.55;;;19.50;44.10;;;;;;6170643;28;20030;-73
2021/12/27 04:40:09;;;;;;;10.57;5.80;;;19.50;44.10;;;;;;6170751;28;20034;-73
2021/12/27 04:43:13;;;;;;;11.50;6.00;;;19.50;44.10;;;;;;6170757;28;20023;-73
2021/12/27 04:46:14;;;;;;;11.65;6.28;;;19.50;44.10;;;;;;6170062;28;20034;-73
2021/12/27 04:49:14;;;;;;;10.30;6.25;;;19.50;44.10;;;;;;6170474;28;20027;-73
2021/12/27 04:52:15;;;;;;;13.00;6.53;;;19.50;44.10;;;;;;6170265;28;20033;-73
2021/12/27 04:55:15;;;;;;;12.75;6.45;;;19.50;44.10;;;;;;6170211;28;20114;-73
2021/12/27 04:58:17;;;;;;;10.40;6.00;;;19.50;44.10;;;;;;6170187;28;20070;-73
2021/12/27 05:01:18;;;;;;;13.77;6.82;;;19.50;44.10;;;;;;6179971;28;20586;-73
2021/12/27 05:04:19;;;;;;;11.13;6.15;;;19.50;44.00;;;;;;6218421;28;20030;-73
2021/12/27 05:07:19;;;;;;;10.90;6.03;;;19.50;44.10;;;;;;6223033;28;20021;-74
2021/12/27 05:10:20;;;;;;;11.75;6.15;;;19.50;44.00;;;;;;6223226;28;20116;-74
2021/12/27 05:13:20;;;;;;;11.20;6.32;;;19.50;44.00;;;;;;6222887;28;20026;-73
2021/12/27 05:16:21;;;;;;;12.27;6.82;;;19.50;44.10;;;;;;6223313;28;20553;-73
2021/12/27 05:19:21;;;;;;;12.50;6.57;;;19.50;44.00;;;;;;6223135;28;20512;-73
2021/12/27 05:22:22;;;;;;;10.23;5.50;;;19.50;43.90;;;;;;6220081;28;20040;-73
2021/12/27 05:25:22;;;;;;;11.25;6.30;;;19.50;43.90;;;;;;6209086;28;20093;-74
2021/12/27 05:28:23;;;;;;;10.43;6.38;;;19.50;43.90;;;;;;6199948;28;20037;-74
2021/12/27 05:31:24;;;;;;;11.48;6.55;;;19.50;43.90;;;;;;6212784;28;20027;-73
2021/12/27 05:34:24;;;;;;;11.43;6.18;;;19.50;43.90;;;;;;6207218;28;20048;-73
2021/12/27 05:37:25;;;;;;;9.23;5.40;;;19.50;43.90;;;;;;6223276;28;20030;-73
2021/12/27 05:40:25;;;;;;;10.38;6.20;;;19.50;43.90;;;;;;6222632;28;20109;-74
2021/12/27 05:43:27;;;;;;;13.35;6.72;;;19.50;43.90;;;;;;6208684;28;20026;-73
2021/12/27 05:46:27;;;;;;;12.50;6.45;;;19.50;43.90;;;;;;6204466;28;20061;-73
2021/12/27 05:49:28;;;;;;;11.35;6.43;;;19.50;43.90;;;;;;6218981;28;20029;-73
2021/12/27 05:52:28;;;;;;;11.77;6.00;;;19.50;43.90;;;;;;6222164;28;20030;-73
2021/12/27 05:55:29;;;;;;;11.43;6.65;;;19.50;43.90;;;;;;6222060;28;20049;-73
2021/12/27 05:58:30;;;;;;;13.40;6.47;;;19.50;43.80;;;;;;6221825;28;20029;-73
2021/12/27 06:01:31;;;;;;;12.07;6.35;;;19.50;43.90;;;;;;6208040;28;20054;-73
2021/12/27 06:04:31;;;;;;;12.15;6.15;;;19.50;43.90;;;;;;6202091;28;20026;-73
2021/12/27 06:07:32;;;;;;;12.02;6.95;;;19.60;44.00;;;;;;6222084;28;20112;-73
2021/12/27 06:10:32;;;;;;;11.90;6.28;;;19.50;44.00;;;;;;6221590;28;20037;-73
2021/12/27 06:13:33;;;;;;;12.02;5.90;;;19.50;44.00;;;;;;6222074;28;20076;-73
2021/12/27 06:16:34;;;;;;;11.85;6.10;;;19.60;44.00;;;;;;6221410;28;20033;-74
2021/12/27 06:19:34;;;;;;;10.82;6.25;;;19.50;43.90;;;;;;6221657;28;20022;-74
2021/12/27 06:22:37;;;;;;;10.25;6.13;;;19.60;44.10;;;;;;6221743;28;20034;-74
2021/12/27 06:25:37;;;;;;;11.25;6.32;;;19.60;44.00;;;;;;6196230;28;20022;-74
2021/12/27 06:28:38;;;;;;;10.80;6.25;;;19.60;44.10;;;;;;6197758;28;20085;-74
2021/12/27 06:31:39;;;;;;;11.85;6.40;;;19.60;44.10;;;;;;6207632;28;20556;-75
2021/12/27 06:34:41;;;;;;;10.73;6.25;;;19.60;44.10;;;;;;6203333;28;20053;-74
2021/12/27 06:37:43;;;;;;;10.40;6.22;;;19.70;44.20;;;;;;6221807;28;20030;-73
2021/12/27 06:40:43;;;;;;;11.05;6.05;;;19.60;44.10;;;;;;6221051;28;20076;-73
2021/12/27 06:43:44;;;;;;;12.35;6.53;;;19.60;44.10;;;;;;6205053;28;20030;-73
2021/12/27 06:46:44;;;;;;;10.85;6.00;;;19.60;44.10;;;;;;6218500;28;20060;-73
2021/12/27 06:49:47;;;;;;;10.60;6.15;;;19.70;44.20;;;;;;6220796;28;20038;-73
2021/12/27 06:52:48;;;;;;;9.02;5.13;;;19.70;44.20;;;;;;6220723;28;20029;-73
2021/12/27 06:55:48;;;;;;;10.65;6.70;;;19.70;44.30;;;;;;6189488;28;20049;-74
2021/12/27 06:58:48;;;;;;;11.52;6.30;;;19.70;44.30;;;;;;6207454;28;20085;-74
2021/12/27 07:01:49;;;;;;;10.63;6.30;;;19.70;44.30;;;;;;6194645;28;20381;-74
2021/12/27 07:04:50;;;;;;;9.95;6.40;;;19.70;44.30;;;;;;6200402;28;20073;-74
2021/12/27 07:07:50;;;;;;;11.63;6.60;;;19.80;44.40;;;;;;6210313;28;20117;-73
2021/12/27 07:10:51;;;;;;;11.15;6.38;;;19.70;44.40;;;;;;6197713;28;20111;-74
2021/12/27 07:13:51;;;;;;;11.50;6.30;;;19.70;44.40;;;;;;6191646;28;20481;-74
2021/12/27 07:16:52;;;;;;;13.55;6.55;;;19.70;44.50;;;;;;6207789;28;20035;-73
2021/12/27 07:19:52;;;;;;;10.93;6.18;;;19.70;44.60;;;;;;6211896;28;20022;-73
2021/12/27 07:22:53;;;;;;;12.73;6.35;;;19.70;44.60;;;;;;6203163;28;20050;-73
2021/12/27 07:25:54;;;;;;;11.63;6.88;;;19.80;44.70;;;;;;6197302;28;20018;-73
2021/12/27 07:28:54;;;;;;;12.30;6.05;;;19.80;44.70;;;;;;6181124;28;20046;-73
2021/12/27 07:31:55;;;;;;;11.30;6.80;;;19.80;44.70;;;;;;6201225;28;20117;-73
2021/12/27 07:34:55;;;;;;;12.93;6.95;;;19.80;44.80;;;;;;6192675;28;20031;-74
2021/12/27 07:37:56;;;;;;;13.50;6.60;;;19.80;44.80;;;;;;6176358;28;20125;-73
2021/12/27 07:40:56;;;;;;;15.60;6.85;;;19.80;44.80;;;;;;6218248;28;20037;-73
2021/12/27 07:43:57;;;;;;;17.60;6.40;;;19.80;44.80;;;;;;6194955;28;20038;-74
2021/12/27 07:46:57;;;;;;;14.85;6.25;;;19.80;44.90;;;;;;6202680;28;20069;-73
2021/12/27 07:49:58;;;;;;;16.35;6.50;;;19.90;45.00;;;;;;6202418;28;20035;-72
2021/12/27 07:52:59;;;;;;;15.07;6.55;;;19.90;44.90;;;;;;6219904;28;20511;-72
2021/12/27 07:55:59;;;;;;;10.93;6.22;;;19.90;44.90;;;;;;6187428;28;20022;-72
2021/12/27 07:59:04;;;;;;;12.32;6.32;;;19.80;44.90;;;;;;6195708;28;20034;-72
2021/12/27 08:02:04;;;;;;;10.07;6.20;;;19.80;44.90;;;;;;6205709;28;20516;-72
2021/12/27 08:05:05;;;;;;;10.82;6.05;;;19.80;45.00;;;;;;6193173;28;20029;-72
2021/12/27 08:08:06;;;;;;;9.85;6.05;;;19.80;45.00;;;;;;6195266;28;20127;-72
2021/12/27 08:11:06;;;;;;;14.30;6.07;;;19.80;45.00;;;;;;6204076;28;20038;-73
2021/12/27 08:14:07;;;;;;;11.23;6.35;;;19.80;45.00;;;;;;6204569;28;20030;-72
2021/12/27 08:17:07;;;;;;;14.07;6.78;;;19.80;45.00;;;;;;6210971;28;20515;-73
2021/12/27 08:20:09;;;;;;;10.60;6.15;;;19.90;45.00;;;;;;6219883;28;20037;-72
2021/12/27 08:23:10;;;;;;;13.35;7.07;;;19.90;45.00;;;;;;6215028;28;20050;-72
2021/12/27 08:26:11;;;;;;;16.35;7.93;;;19.80;44.80;;;;;;6200635;28;20436;-72
2021/12/27 08:29:11;;;;;;;15.85;7.85;;;19.80;44.40;;;;;;6205483;28;20030;-72
2021/12/27 08:32:12;;;;;;;13.32;7.55;;;19.80;44.20;;;;;;6212349;28;20505;-72
2021/12/27 08:35:14;;;;;;;16.90;8.32;;;19.80;44.40;;;;;;6198658;28;20026;-72
2021/12/27 08:38:16;;;;;;;14.85;8.10;;;19.80;44.60;;;;;;6219228;28;20029;-72
2021/12/27 08:41:17;;;;;;;12.05;7.22;;;19.80;44.70;;;;;;6219569;28;20439;-72
2021/12/27 08:44:18;;;;;;;17.42;8.38;;;19.80;44.70;;;;;;6218925;28;20073;-72
2021/12/27 08:47:19;;;;;;;16.20;8.55;;;19.80;44.70;;;;;;6203530;28;20027;-73
2021/12/27 08:50:19;;;;;;;15.18;8.43;;;19.80;44.80;;;;;;6203189;28;20037;-73
2021/12/27 08:53:20;;;;;;;14.30;7.70;;;19.80;44.80;;;;;;6219532;28;20037;-72
2021/12/27 08:56:20;;;;;;;14.50;7.72;;;19.80;44.80;;;;;;6210377;28;20030;-72
2021/12/27 08:59:21;;;;;;;15.75;8.45;;;19.80;44.80;;;;;;6224390;28;20106;-72
2021/12/27 09:02:21;;;;;;;14.98;8.18;;;19.80;44.80;;;;;;6222177;28;20054;-72
2021/12/27 09:05:22;;;;;;;15.70;8.45;;;19.80;44.90;;;;;;6221024;28;20108;-72
2021/12/27 09:08:23;;;;;;;16.05;8.15;;;19.80;44.90;;;;;;6224421;28;20048;-72
2021/12/27 09:11:23;;;;;;;14.27;7.78;;;19.80;44.90;;;;;;6219161;28;20084;-72
2021/12/27 09:14:24;;;;;;;15.55;8.50;;;19.80;45.00;;;;;;6224679;28;20080;-72
2021/12/27 09:17:24;;;;;;;13.55;7.60;;;19.80;44.90;;;;;;6223412;28;20033;-72
2021/12/27 09:20:27;;;;;;;15.65;7.82;;;19.80;45.00;;;;;;6218163;28;20112;-72
2021/12/27 09:23:27;;;;;;;12.55;7.13;;;19.80;44.90;;;;;;6220882;28;20030;-72
2021/12/27 09:26:28;;;;;;;16.10;8.13;;;19.80;44.90;;;;;;6223400;28;20025;-72
2021/12/27 09:29:29;;;;;;;15.25;8.15;;;19.80;45.00;;;;;;6223167;28;20061;-72
2021/12/27 09:32:29;;;;;;;15.18;8.55;;;19.80;45.00;;;;;;6204552;28;20437;-72
2021/12/27 09:35:30;;;;;;;15.25;8.18;;;19.80;45.00;;;;;;6200536;28;20038;-72
2021/12/27 09:38:31;;;;;;;16.35;7.95;;;19.80;45.00;;;;;;6221012;28;20117;-72
2021/12/27 09:41:31;;;;;;;15.23;8.18;;;19.80;45.00;;;;;;6223721;28;20010;-72
2021/12/27 09:44:32;;;;;;;14.13;8.07;;;19.80;45.00;;;;;;6224109;28;20152;-72
2021/12/27 09:47:34;;;;;;;13.45;7.63;;;19.80;45.00;;;;;;6216359;28;20476;-73
2021/12/27 09:50:45;;;;;;;15.95;8.20;;;19.80;45.10;;;;;;6213365;28;20562;-72
2021/12/27 09:53:47;;;;;;;12.77;7.53;;;19.80;45.00;;;;;;6222838;28;20049;-72
2021/12/27 09:56:47;;;;;;;14.85;7.95;;;19.80;45.00;;;;;;6223329;28;20038;-73
2021/12/27 09:59:48;;;;;;;14.57;8.60;;;19.80;45.00;;;;;;6220519;28;20084;-72
2021/12/27 10:02:51;;;;;;;16.63;8.68;;;19.80;45.00;;;;;;6222875;28;20107;-72
2021/12/27 10:05:51;;;;;;;14.77;8.05;;;19.80;45.00;;;;;;6212888;28;20023;-72
2021/12/27 10:08:54;;;;;;;14.25;7.32;;;19.80;45.00;;;;;;6198602;28;20417;-72
2021/12/27 10:11:55;;;;;;;14.32;8.00;;;19.80;45.00;;;;;;6209292;28;20439;-73
2021/12/27 10:14:57;;;;;;;14.52;7.88;;;19.80;45.10;;;;;;6223332;28;20049;-72
2021/12/27 10:18:16;;;;;;;16.10;8.15;;;19.80;45.00;;;;;;6204637;28;20216;-72
2021/12/27 10:21:16;;;;;;;15.40;8.30;;;19.80;45.00;;;;;;6209679;28;20068;-73
2021/12/27 10:24:27;;;;;;;14.10;7.95;;;19.80;45.10;;;;;;6222501;28;20488;-72
2021/12/27 10:27:33;;;;;;;14.98;8.30;;;19.80;45.10;;;;;;6222386;28;20037;-73
2021/12/27 10:30:41;;;;;;;16.63;8.52;;;19.80;45.00;;;;;;6218476;28;20396;-73
2021/12/27 10:33:41;;;;;;;16.92;8.35;;;19.80;45.10;;;;;;6203608;28;20030;-72
2021/12/27 10:37:03;;;;;;;12.98;7.47;;;19.80;45.00;;;;;;6214010;28;20427;-72
2021/12/27 10:40:06;;;;;;;15.70;8.02;;;19.90;45.10;;;;;;6215183;28;20033;-73
2021/12/27 10:43:07;;;;;;;14.40;7.70;;;19.90;45.20;;;;;;6219277;28;20026;-71
2021/12/27 10:46:20;;;;;;;12.85;7.68;;;19.90;45.20;;;;;;6222266;28;20112;-72
2021/12/27 10:49:20;;;;;;;13.07;7.43;;;19.80;45.10;;;;;;6217365;28;20065;-72
2021/12/27 10:52:22;;;;;;;13.70;7.63;;;19.90;45.20;;;;;;6216866;28;20030;-73
2021/12/27 10:55:31;;;;;;;13.52;7.32;;;19.90;45.20;;;;;;6203200;28;20025;-72
2021/12/27 10:58:37;;;;;;;14.07;7.82;;;19.90;45.20;;;;;;6222004;28;20053;-73
2021/12/27 11:01:40;;;;;;;15.02;7.45;;;19.90;45.20;;;;;;6220833;28;20402;-72
2021/12/27 11:04:41;;;;;;;13.50;7.40;;;19.90;45.20;;;;;;6221476;28;20033;-72
2021/12/27 11:07:42;;;;;;;14.65;8.00;;;19.90;45.20;;;;;;6196725;28;20037;-72
2021/12/27 11:10:42;;;;;;;15.93;7.60;;;19.90;45.20;;;;;;6202195;28;20049;-72
2021/12/27 11:13:44;;;;;;;12.82;6.90;;;19.90;45.20;;;;;;6205147;28;20054;-72
2021/12/27 11:16:45;;;;;;;13.85;7.70;;;19.90;45.20;;;;;;6209642;28;20026;-72
2021/12/27 11:19:45;;;;;;;13.18;7.95;;;19.90;45.30;;;;;;6221785;28;20537;-73
2021/12/27 11:22:46;;;;;;;12.77;7.13;;;19.90;45.20;;;;;;6221019;28;20033;-72
2021/12/27 11:25:47;;;;;;;15.40;7.78;;;19.90;45.30;;;;;;6221263;28;20153;-75
2021/12/27 11:28:49;;;;;;;12.20;6.88;;;19.90;45.30;;;;;;6221026;28;20022;-72
2021/12/27 11:32:11;;;;;;;14.80;8.02;;;19.90;45.30;;;;;;6216945;28;20038;-72
2021/12/27 11:35:12;;;;;;;12.82;7.60;;;19.90;45.30;;;;;;6200151;28;20046;-72
2021/12/27 11:38:34;;;;;;;12.52;6.90;;;19.90;45.30;;;;;;6215899;28;20117;-72
2021/12/27 11:41:36;;;;;;;13.10;7.15;;;19.90;45.30;;;;;;6211553;28;20239;-72
2021/12/27 11:44:51;;;;;;;13.90;7.30;;;19.90;45.30;;;;;;6220583;28;20037;-72
2021/12/27 11:48:06;;;;;;;14.05;7.65;;;19.90;45.30;;;;;;6214720;28;20030;-74
2021/12/27 11:51:09;;;;;;;11.75;6.68;;;19.90;45.30;;;;;;6207657;28;20030;-72
2021/12/27 11:54:30;;;;;;;12.98;7.43;;;19.90;45.30;;;;;;6221411;28;20117;-72
2021/12/27 11:57:43;;;;;;;13.07;7.53;;;19.90;45.30;;;;;;6212877;28;20315;-72
2021/12/27 12:00:43;;;;;;;13.80;7.55;;;19.90;45.30;;;;;;6210314;28;20113;-72
2021/12/27 12:03:44;;;;;;;15.45;7.20;;;19.90;45.30;;;;;;6198335;28;20033;-72
2021/12/27 12:06:44;;;;;;;13.23;7.22;;;19.90;45.30;;;;;;6196009;28;20035;-73
2021/12/27 12:09:47;;;;;;;12.00;6.72;;;19.90;45.30;;;;;;6196562;28;20034;-72
2021/12/27 12:13:20;;;;;;;13.07;7.45;;;19.90;45.30;;;;;;6216273;28;20532;-72
2021/12/27 12:16:23;;;;;;;11.93;6.80;;;19.90;45.30;;;;;;6219296;28;20270;-72
2021/12/27 12:19:47;;;;;;;10.77;6.40;;;19.90;45.30;;;;;;6205054;28;20030;-72
2021/12/27 12:22:47;;;;;;;13.27;7.18;;;19.90;45.30;;;;;;6211240;28;20044;-72
2021/12/27 12:25:57;;;;;;;13.30;7.20;;;19.90;45.30;;;;;;6211243;28;20031;-72
2021/12/27 12:28:59;;;;;;;13.05;6.55;;;19.90;45.40;;;;;;6200632;28;20040;-72
2021/12/27 12:32:04;;;;;;;11.55;6.53;;;19.90;45.30;;;;;;6210124;28;20359;-73
2021/12/27 12:35:05;;;;;;;11.80;7.30;;;19.90;45.30;;;;;;6197729;28;20480;-72
2021/12/27 12:38:15;;;;;;;13.77;7.18;;;19.90;45.30;;;;;;6219210;28;20088;-72
2021/12/27 12:41:18;;;;;;;12.20;7.15;;;19.90;45.30;;;;;;6211268;28;20480;-72
2021/12/27 12:44:19;;;;;;;13.05;7.00;;;19.90;45.30;;;;;;6197735;28;20042;-73
2021/12/27 12:47:22;;;;;;;12.68;7.40;;;19.90;45.40;;;;;;6214183;28;20448;-73
2021/12/27 12:50:23;;;;;;;13.20;7.53;;;19.90;45.40;;;;;;6203140;28;20076;-72
2021/12/27 12:53:31;;;;;;;12.43;7.05;;;19.90;45.40;;;;;;6213821;28;20393;-73
2021/12/27 12:56:33;;;;;;;12.90;6.88;;;19.90;45.40;;;;;;6211772;28;20038;-72
2021/12/27 12:59:56;;;;;;;13.93;7.38;;;19.90;45.40;;;;;;6196701;28;20040;-73
2021/12/27 13:03:10;;;;;;;14.10;6.97;;;20.00;45.60;;;;;;6218320;28;20133;-72
2021/12/27 13:06:11;;;;;;;14.93;7.75;;;20.00;45.50;;;;;;6197380;28;20053;-72
2021/12/27 13:09:11;;;;;;;13.93;7.57;;;20.00;45.60;;;;;;6198959;28;20030;-72
2021/12/27 13:12:14;;;;;;;14.27;7.45;;;20.00;45.60;;;;;;6212989;28;20045;-72
2021/12/27 13:15:29;;;;;;;15.43;7.68;;;20.00;45.70;;;;;;6211676;28;20026;-72
2021/12/27 13:18:34;;;;;;;17.67;7.50;;;20.00;45.70;;;;;;6217099;28;20033;-72
2021/12/27 13:21:41;;;;;;;15.15;7.60;;;20.00;45.80;;;;;;6210771;28;20033;-72
2021/12/27 13:24:54;;;;;;;12.82;7.53;;;20.00;46.00;;;;;;6206356;28;20069;-72
2021/12/27 13:28:30;;;;;;;14.77;7.78;;;20.00;46.20;;;;;;6216729;28;20065;-72
2021/12/27 13:31:32;;;;;;;14.00;7.88;;;20.00;46.20;;;;;;6216233;28;20033;-72
2021/12/27 13:34:32;;;;;;;12.40;7.40;;;20.00;46.30;;;;;;6207035;28;20034;-72
2021/12/27 13:37:38;;;;;;;12.63;7.43;;;20.00;46.30;;;;;;6217213;28;20053;-72
2021/12/27 13:40:42;;;;;;;;;;;20.00;46.30;;;;;;6216309;28;20104;-72
2021/12/27 13:43:51;;;;;;;11.00;6.75;;;20.00;46.30;;;;;;6210999;28;19913;-72
2021/12/27 13:46:58;;;;;;;14.13;7.07;;;20.00;46.30;;;;;;6220196;28;20153;-72
2021/12/27 13:49:58;;;;;;;12.43;7.03;;;20.00;46.30;;;;;;6212640;28;20061;-72
2021/12/27 13:52:59;;;;;;;15.10;6.88;;;20.00;46.30;;;;;;6223133;28;20022;-72
2021/12/27 13:56:12;;;;;;;13.65;7.13;;;20.00;46.30;;;;;;6211720;28;20022;-72
2021/12/27 13:59:16;;;;;;;13.45;7.65;;;20.00;46.20;;;;;;6212253;28;20022;-72
2021/12/27 14:02:16;;;;;;;10.98;6.30;;;20.00;46.20;;;;;;6221947;28;20077;-72
2021/12/27 14:05:24;;;;;;;12.57;6.85;;;20.00;46.30;;;;;;6206654;28;20027;-71
2021/12/27 14:08:28;;;;;;;15.80;7.00;;;20.00;46.20;;;;;;6175541;28;20414;-72
2021/12/27 14:11:28;;;;;;;10.95;6.60;;;20.00;46.20;;;;;;6207503;28;20121;-74
2021/12/27 14:14:46;;;;;;;12.82;6.93;;;20.00;46.20;;;;;;6205547;28;20032;-73
2021/12/27 14:17:51;;;;;;;12.77;7.10;;;20.00;46.20;;;;;;6219026;28;20720;-72
2021/12/27 14:21:02;;;;;;;16.27;8.00;;;20.00;46.20;;;;;;6212799;28;20024;-72
2021/12/27 14:24:05;;;;;;;12.02;6.90;;;20.00;46.20;;;;;;6208272;28;20393;-71
2021/12/27 14:27:15;;;;;;;12.45;7.18;;;20.00;46.20;;;;;;6211618;28;20052;-72
2021/12/27 14:30:21;;;;;;;11.15;6.57;;;19.90;46.20;;;;;;6214963;28;20030;-72
2021/12/27 14:33:21;;;;;;;14.23;7.07;;;20.00;46.20;;;;;;6197225;28;20029;-73
2021/12/27 14:36:22;;;;;;;16.13;7.63;;;20.00;46.20;;;;;;6203409;28;20096;-72
2021/12/27 14:39:22;;;;;;;11.70;6.32;;;20.00;46.20;;;;;;6201930;28;20026;-72
2021/12/27 14:42:25;;;;;;;12.07;6.60;;;20.00;46.20;;;;;;6218221;28;20153;-72
2021/12/27 14:45:27;;;;;;;13.73;7.07;;;20.00;46.20;;;;;;6220283;28;20026;-72
2021/12/27 14:48:28;;;;;;;13.05;6.78;;;20.00;46.20;;;;;;6216897;28;20480;-72
2021/12/27 14:51:28;;;;;;;15.00;7.00;;;20.00;46.20;;;;;;6210596;28;20046;-72
2021/12/27 14:54:29;;;;;;;13.20;7.13;;;20.00;46.20;;;;;;6203879;28;20034;-72
2021/12/27 14:57:29;;;;;;;12.93;6.60;;;20.00;46.20;;;;;;6216233;28;20033;-73
2021/12/27 15:00:37;;;;;;;11.88;6.75;;;20.00;46.20;;;;;;6211310;28;20041;-73
2021/12/27 15:03:38;;;;;;;15.52;7.25;;;20.00;46.20;;;;;;6214208;28;20050;-73
2021/12/27 15:06:40;;;;;;;24.52;10.85;;;19.90;46.10;;;;;;6195592;28;20034;-72
2021/12/27 15:09:40;;;;;;;25.70;14.45;;;19.90;44.40;;;;;;6206491;28;20030;-72
2021/12/27 15:12:42;;;;;;;34.80;15.98;;;19.80;42.50;;;;;;6219108;28;20029;-72
2021/12/27 15:15:43;;;;;;;34.22;16.92;;;19.80;41.90;;;;;;6219654;28;20091;-72
2021/12/27 15:18:43;;;;;;;37.90;17.73;;;19.80;41.40;;;;;;6218648;28;20435;-72
2021/12/27 15:21:44;;;;;;;35.88;18.50;;;19.80;41.00;;;;;;6208507;28;20505;-73
2021/12/27 15:24:44;;;;;;;42.05;19.83;;;19.80;40.50;;;;;;6219326;28;20526;-72
2021/12/27 15:27:45;;;;;;;40.40;20.35;;;19.80;39.50;;;;;;6220330;28;20026;-72
2021/12/27 15:30:45;;;;;;;41.70;21.27;;;19.80;39.90;;;;;;6217195;28;20041;-73
2021/12/27 15:33:46;;;;;;;47.72;22.50;;;19.70;39.00;;;;;;6202766;28;20038;-72
2021/12/27 15:36:47;;;;;;;49.08;24.25;;;19.70;38.50;;;;;;6213850;28;20057;-72
2021/12/27 15:39:47;;;;;;;49.42;23.52;;;19.70;38.00;;;;;;6202634;28;20030;-72
2021/12/27 15:42:52;;;;;;;47.00;22.88;;;19.70;38.10;;;;;;6214557;28;20402;-73
2021/12/27 15:45:54;;;;;;;43.28;22.90;;;19.70;37.50;;;;;;6209413;28;20045;-74